sensor_id;sensor_type;location;lat;lon;timestamp;P1;durP1;ratioP1;P2;durP2;ratioP2
58091;SDS011;43896;48.178;11.578;2023-02-28T00:02:19;6.18;;;3.20;;
58091;SDS011;43896;48.178;11.578;2023-02-28T00:04:45;6.20;;;2.90;;
58091;SDS011;43896;48.178;11.578;2023-02-28T00:07:11;7.95;;;2.90;;
58091;SDS011;43896;48.178;11.578;2023-02-28T00:09:36;6.18;;;3.08;;
58091;SDS011;43896;48.178;11.578;2023-02-28T00:12:01;6.63;;;3.25;;
58091;SDS011;43896;48.178;11.578;2023-02-28T00:14:35;7.35;;;2.80;;
58091;SDS011;43896;48.178;11.578;2023-02-28T00:17:01;6.03;;;2.90;;
58091;SDS011;43896;48.178;11.578;2023-02-28T00:19:26;5.55;;;2.92;;
58091;SDS011;43896;48.178;11.578;2023-02-28T00:21:51;7.65;;;3.30;;
58091;SDS011;43896;48.178;11.578;2023-02-28T00:24:17;6.13;;;3.10;;
58091;SDS011;43896;48.178;11.578;2023-02-28T00:26:42;6.53;;;3.03;;
58091;SDS011;43896;48.178;11.578;2023-02-28T00:29:07;6.07;;;2.92;;
58091;SDS011;43896;48.178;11.578;2023-02-28T00:31:32;6.15;;;2.80;;
58091;SDS011;43896;48.178;11.578;2023-02-28T00:33:58;7.38;;;3.13;;
58091;SDS011;43896;48.178;11.578;2023-02-28T00:36:23;5.53;;;3.17;;
58091;SDS011;43896;48.178;11.578;2023-02-28T00:38:48;7.50;;;3.35;;
58091;SDS011;43896;48.178;11.578;2023-02-28T00:41:14;6.38;;;3.00;;
58091;SDS011;43896;48.178;11.578;2023-02-28T00:43:39;6.32;;;3.20;;
58091;SDS011;43896;48.178;11.578;2023-02-28T00:46:05;6.20;;;3.08;;
58091;SDS011;43896;48.178;11.578;2023-02-28T00:48:31;7.10;;;3.70;;
58091;SDS011;43896;48.178;11.578;2023-02-28T00:50:57;7.15;;;3.42;;
58091;SDS011;43896;48.178;11.578;2023-02-28T00:53:22;5.88;;;3.22;;
58091;SDS011;43896;48.178;11.578;2023-02-28T00:55:48;7.07;;;3.65;;
58091;SDS011;43896;48.178;11.578;2023-02-28T00:58:14;7.30;;;4.15;;
58091;SDS011;43896;48.178;11.578;2023-02-28T01:00:39;6.75;;;3.20;;
58091;SDS011;43896;48.178;11.578;2023-02-28T01:03:05;6.85;;;3.28;;
58091;SDS011;43896;48.178;11.578;2023-02-28T01:05:30;6.45;;;3.40;;
58091;SDS011;43896;48.178;11.578;2023-02-28T01:07:55;6.68;;;2.92;;
58091;SDS011;43896;48.178;11.578;2023-02-28T01:10:20;6.93;;;3.08;;
58091;SDS011;43896;48.178;11.578;2023-02-28T01:12:46;6.03;;;2.80;;
58091;SDS011;43896;48.178;11.578;2023-02-28T01:15:11;5.97;;;2.95;;
58091;SDS011;43896;48.178;11.578;2023-02-28T01:17:36;6.93;;;3.10;;
58091;SDS011;43896;48.178;11.578;2023-02-28T01:20:02;6.32;;;2.95;;
58091;SDS011;43896;48.178;11.578;2023-02-28T01:22:28;6.30;;;3.30;;
58091;SDS011;43896;48.178;11.578;2023-02-28T01:24:54;6.80;;;3.38;;
58091;SDS011;43896;48.178;11.578;2023-02-28T01:27:19;6.18;;;3.10;;
58091;SDS011;43896;48.178;11.578;2023-02-28T01:29:44;7.18;;;3.35;;
58091;SDS011;43896;48.178;11.578;2023-02-28T01:32:10;7.22;;;3.50;;
58091;SDS011;43896;48.178;11.578;2023-02-28T01:34:35;7.18;;;3.17;;
58091;SDS011;43896;48.178;11.578;2023-02-28T01:37:01;6.32;;;3.08;;
58091;SDS011;43896;48.178;11.578;2023-02-28T01:39:26;6.10;;;3.20;;
58091;SDS011;43896;48.178;11.578;2023-02-28T01:41:51;6.40;;;3.38;;
58091;SDS011;43896;48.178;11.578;2023-02-28T01:47:20;7.78;;;3.90;;
58091;SDS011;43896;48.178;11.578;2023-02-28T01:49:47;5.97;;;2.80;;
58091;SDS011;43896;48.178;11.578;2023-02-28T01:52:14;6.30;;;3.03;;
58091;SDS011;43896;48.178;11.578;2023-02-28T01:54:43;6.50;;;3.30;;
58091;SDS011;43896;48.178;11.578;2023-02-28T01:57:15;6.47;;;3.50;;
58091;SDS011;43896;48.178;11.578;2023-02-28T01:59:45;6.13;;;3.20;;
58091;SDS011;43896;48.178;11.578;2023-02-28T02:02:17;6.15;;;3.22;;
58091;SDS011;43896;48.178;11.578;2023-02-28T02:04:46;6.72;;;3.30;;
58091;SDS011;43896;48.178;11.578;2023-02-28T02:07:20;5.93;;;3.00;;
58091;SDS011;43896;48.178;11.578;2023-02-28T02:09:47;8.73;;;3.30;;
58091;SDS011;43896;48.178;11.578;2023-02-28T02:12:25;5.28;;;2.90;;
58091;SDS011;43896;48.178;11.578;2023-02-28T02:17:39;6.50;;;3.25;;
58091;SDS011;43896;48.178;11.578;2023-02-28T02:20:27;6.18;;;3.17;;
58091;SDS011;43896;48.178;11.578;2023-02-28T02:23:14;6.72;;;3.03;;
58091;SDS011;43896;48.178;11.578;2023-02-28T02:26:15;6.53;;;3.30;;
58091;SDS011;43896;48.178;11.578;2023-02-28T02:35:11;6.97;;;3.45;;
58091;SDS011;43896;48.178;11.578;2023-02-28T02:40:18;7.53;;;3.22;;
58091;SDS011;43896;48.178;11.578;2023-02-28T02:42:47;6.90;;;3.37;;
58091;SDS011;43896;48.178;11.578;2023-02-28T02:45:25;7.07;;;3.33;;
58091;SDS011;43896;48.178;11.578;2023-02-28T02:48:00;6.35;;;3.33;;
58091;SDS011;43896;48.178;11.578;2023-02-28T02:50:38;6.22;;;3.08;;
58091;SDS011;43896;48.178;11.578;2023-02-28T02:55:34;7.32;;;3.33;;
58091;SDS011;43896;48.178;11.578;2023-02-28T02:58:07;6.90;;;3.28;;
58091;SDS011;43896;48.178;11.578;2023-02-28T03:00:42;7.57;;;3.60;;
58091;SDS011;43896;48.178;11.578;2023-02-28T03:03:11;7.07;;;3.47;;
58091;SDS011;43896;48.178;11.578;2023-02-28T03:05:42;7.38;;;3.47;;
58091;SDS011;43896;48.178;11.578;2023-02-28T03:08:11;7.50;;;3.85;;
58091;SDS011;43896;48.178;11.578;2023-02-28T03:10:41;7.10;;;3.50;;
58091;SDS011;43896;48.178;11.578;2023-02-28T03:24:41;7.65;;;3.78;;
58091;SDS011;43896;48.178;11.578;2023-02-28T03:27:16;8.00;;;3.90;;
58091;SDS011;43896;48.178;11.578;2023-02-28T03:29:53;7.50;;;3.60;;
58091;SDS011;43896;48.178;11.578;2023-02-28T03:32:29;8.00;;;3.92;;
58091;SDS011;43896;48.178;11.578;2023-02-28T03:35:08;7.63;;;4.03;;
58091;SDS011;43896;48.178;11.578;2023-02-28T03:37:38;7.93;;;4.32;;
58091;SDS011;43896;48.178;11.578;2023-02-28T03:40:10;7.68;;;3.50;;
58091;SDS011;43896;48.178;11.578;2023-02-28T03:42:39;7.97;;;4.15;;
58091;SDS011;43896;48.178;11.578;2023-02-28T03:45:12;7.97;;;4.00;;
58091;SDS011;43896;48.178;11.578;2023-02-28T03:47:41;9.10;;;4.32;;
58091;SDS011;43896;48.178;11.578;2023-02-28T03:50:18;8.63;;;4.10;;
58091;SDS011;43896;48.178;11.578;2023-02-28T03:52:50;8.57;;;4.50;;
58091;SDS011;43896;48.178;11.578;2023-02-28T03:55:19;8.65;;;4.32;;
58091;SDS011;43896;48.178;11.578;2023-02-28T03:58:01;9.55;;;4.20;;
58091;SDS011;43896;48.178;11.578;2023-02-28T04:00:35;9.10;;;4.40;;
58091;SDS011;43896;48.178;11.578;2023-02-28T04:03:03;8.53;;;4.33;;
58091;SDS011;43896;48.178;11.578;2023-02-28T04:05:29;7.70;;;3.90;;
58091;SDS011;43896;48.178;11.578;2023-02-28T04:08:02;8.88;;;4.38;;
58091;SDS011;43896;48.178;11.578;2023-02-28T04:10:29;8.30;;;4.30;;
58091;SDS011;43896;48.178;11.578;2023-02-28T04:12:54;7.80;;;4.07;;
58091;SDS011;43896;48.178;11.578;2023-02-28T04:15:20;8.07;;;4.10;;
58091;SDS011;43896;48.178;11.578;2023-02-28T04:17:47;8.45;;;4.20;;
58091;SDS011;43896;48.178;11.578;2023-02-28T04:20:13;8.45;;;4.40;;
58091;SDS011;43896;48.178;11.578;2023-02-28T04:22:38;9.15;;;4.40;;
58091;SDS011;43896;48.178;11.578;2023-02-28T04:25:03;8.10;;;4.30;;
58091;SDS011;43896;48.178;11.578;2023-02-28T04:27:30;9.18;;;4.55;;
58091;SDS011;43896;48.178;11.578;2023-02-28T04:29:56;9.15;;;4.35;;
58091;SDS011;43896;48.178;11.578;2023-02-28T04:32:21;8.43;;;4.57;;
58091;SDS011;43896;48.178;11.578;2023-02-28T04:34:46;9.52;;;4.15;;
58091;SDS011;43896;48.178;11.578;2023-02-28T04:37:11;7.85;;;4.18;;
58091;SDS011;43896;48.178;11.578;2023-02-28T04:39:37;8.93;;;4.40;;
58091;SDS011;43896;48.178;11.578;2023-02-28T04:42:03;9.85;;;4.75;;
58091;SDS011;43896;48.178;11.578;2023-02-28T04:44:28;10.32;;;4.60;;
58091;SDS011;43896;48.178;11.578;2023-02-28T04:46:53;9.05;;;4.75;;
58091;SDS011;43896;48.178;11.578;2023-02-28T04:49:19;9.43;;;5.05;;
58091;SDS011;43896;48.178;11.578;2023-02-28T04:51:44;8.60;;;4.28;;
58091;SDS011;43896;48.178;11.578;2023-02-28T04:54:09;10.18;;;4.95;;
58091;SDS011;43896;48.178;11.578;2023-02-28T04:56:35;10.07;;;5.32;;
58091;SDS011;43896;48.178;11.578;2023-02-28T04:59:00;10.02;;;4.80;;
58091;SDS011;43896;48.178;11.578;2023-02-28T05:01:26;10.65;;;5.32;;
58091;SDS011;43896;48.178;11.578;2023-02-28T05:03:57;9.90;;;4.95;;
58091;SDS011;43896;48.178;11.578;2023-02-28T05:06:25;9.95;;;5.15;;
58091;SDS011;43896;48.178;11.578;2023-02-28T05:08:52;9.40;;;5.05;;
58091;SDS011;43896;48.178;11.578;2023-02-28T05:11:25;9.73;;;5.22;;
58091;SDS011;43896;48.178;11.578;2023-02-28T05:13:54;9.07;;;4.95;;
58091;SDS011;43896;48.178;11.578;2023-02-28T05:16:19;10.60;;;5.70;;
58091;SDS011;43896;48.178;11.578;2023-02-28T05:18:45;10.73;;;5.50;;
58091;SDS011;43896;48.178;11.578;2023-02-28T05:21:30;11.93;;;5.95;;
58091;SDS011;43896;48.178;11.578;2023-02-28T05:23:57;10.10;;;5.30;;
58091;SDS011;43896;48.178;11.578;2023-02-28T05:26:25;11.77;;;6.03;;
58091;SDS011;43896;48.178;11.578;2023-02-28T05:28:51;10.02;;;5.88;;
58091;SDS011;43896;48.178;11.578;2023-02-28T05:31:17;9.88;;;5.93;;
58091;SDS011;43896;48.178;11.578;2023-02-28T05:33:42;10.63;;;5.60;;
58091;SDS011;43896;48.178;11.578;2023-02-28T05:36:08;10.73;;;5.93;;
58091;SDS011;43896;48.178;11.578;2023-02-28T05:38:33;10.13;;;5.85;;
58091;SDS011;43896;48.178;11.578;2023-02-28T05:40:58;11.13;;;6.43;;
58091;SDS011;43896;48.178;11.578;2023-02-28T05:43:24;11.27;;;5.82;;
58091;SDS011;43896;48.178;11.578;2023-02-28T05:45:49;10.88;;;6.45;;
58091;SDS011;43896;48.178;11.578;2023-02-28T05:48:14;11.60;;;5.95;;
58091;SDS011;43896;48.178;11.578;2023-02-28T05:50:40;11.82;;;6.28;;
58091;SDS011;43896;48.178;11.578;2023-02-28T05:53:07;13.98;;;6.75;;
58091;SDS011;43896;48.178;11.578;2023-02-28T05:55:32;11.55;;;6.28;;
58091;SDS011;43896;48.178;11.578;2023-02-28T05:57:58;11.70;;;6.25;;
58091;SDS011;43896;48.178;11.578;2023-02-28T06:00:23;12.48;;;6.25;;
58091;SDS011;43896;48.178;11.578;2023-02-28T06:02:49;11.43;;;5.97;;
58091;SDS011;43896;48.178;11.578;2023-02-28T06:05:15;11.57;;;6.65;;
58091;SDS011;43896;48.178;11.578;2023-02-28T06:07:42;12.70;;;6.10;;
58091;SDS011;43896;48.178;11.578;2023-02-28T06:10:08;13.63;;;7.00;;
58091;SDS011;43896;48.178;11.578;2023-02-28T06:12:34;11.02;;;5.93;;
58091;SDS011;43896;48.178;11.578;2023-02-28T06:15:00;14.20;;;6.75;;
58091;SDS011;43896;48.178;11.578;2023-02-28T06:17:25;15.23;;;6.88;;
58091;SDS011;43896;48.178;11.578;2023-02-28T06:19:50;12.38;;;6.60;;
58091;SDS011;43896;48.178;11.578;2023-02-28T06:22:16;11.43;;;6.18;;
58091;SDS011;43896;48.178;11.578;2023-02-28T06:24:41;11.88;;;6.40;;
58091;SDS011;43896;48.178;11.578;2023-02-28T06:27:07;12.52;;;6.35;;
58091;SDS011;43896;48.178;11.578;2023-02-28T06:29:33;12.63;;;6.63;;
58091;SDS011;43896;48.178;11.578;2023-02-28T06:31:59;12.50;;;6.75;;
58091;SDS011;43896;48.178;11.578;2023-02-28T06:34:25;12.77;;;6.68;;
58091;SDS011;43896;48.178;11.578;2023-02-28T06:36:50;11.00;;;6.18;;
58091;SDS011;43896;48.178;11.578;2023-02-28T06:39:16;13.85;;;7.22;;
58091;SDS011;43896;48.178;11.578;2023-02-28T06:41:42;16.33;;;7.85;;
58091;SDS011;43896;48.178;11.578;2023-02-28T06:44:11;12.38;;;7.00;;
58091;SDS011;43896;48.178;11.578;2023-02-28T06:46:39;14.38;;;6.88;;
58091;SDS011;43896;48.178;11.578;2023-02-28T06:49:08;14.68;;;7.82;;
58091;SDS011;43896;48.178;11.578;2023-02-28T06:51:34;12.80;;;7.30;;
58091;SDS011;43896;48.178;11.578;2023-02-28T06:54:01;15.55;;;8.02;;
58091;SDS011;43896;48.178;11.578;2023-02-28T06:56:26;13.85;;;7.97;;
58091;SDS011;43896;48.178;11.578;2023-02-28T06:58:53;14.32;;;7.38;;
58091;SDS011;43896;48.178;11.578;2023-02-28T07:01:18;16.67;;;8.10;;
58091;SDS011;43896;48.178;11.578;2023-02-28T07:03:44;17.15;;;7.90;;
58091;SDS011;43896;48.178;11.578;2023-02-28T07:06:09;13.65;;;7.72;;
58091;SDS011;43896;48.178;11.578;2023-02-28T07:08:35;15.75;;;8.30;;
58091;SDS011;43896;48.178;11.578;2023-02-28T07:11:01;15.68;;;7.88;;
58091;SDS011;43896;48.178;11.578;2023-02-28T07:13:27;13.65;;;7.78;;
58091;SDS011;43896;48.178;11.578;2023-02-28T07:15:57;17.08;;;8.50;;
58091;SDS011;43896;48.178;11.578;2023-02-28T07:18:24;14.88;;;7.55;;
58091;SDS011;43896;48.178;11.578;2023-02-28T07:20:50;13.85;;;7.88;;
58091;SDS011;43896;48.178;11.578;2023-02-28T07:23:16;17.10;;;8.40;;
58091;SDS011;43896;48.178;11.578;2023-02-28T07:25:42;13.85;;;7.88;;
58091;SDS011;43896;48.178;11.578;2023-02-28T07:28:08;15.13;;;8.20;;
58091;SDS011;43896;48.178;11.578;2023-02-28T07:30:33;14.60;;;8.30;;
58091;SDS011;43896;48.178;11.578;2023-02-28T07:32:59;15.02;;;8.20;;
58091;SDS011;43896;48.178;11.578;2023-02-28T07:35:24;15.05;;;8.80;;
58091;SDS011;43896;48.178;11.578;2023-02-28T07:37:49;17.20;;;8.55;;
58091;SDS011;43896;48.178;11.578;2023-02-28T07:40:15;17.70;;;8.73;;
58091;SDS011;43896;48.178;11.578;2023-02-28T07:42:42;15.10;;;8.52;;
58091;SDS011;43896;48.178;11.578;2023-02-28T07:45:08;15.30;;;8.68;;
58091;SDS011;43896;48.178;11.578;2023-02-28T07:47:36;15.10;;;8.57;;
58091;SDS011;43896;48.178;11.578;2023-02-28T07:50:07;15.93;;;9.00;;
58091;SDS011;43896;48.178;11.578;2023-02-28T07:52:33;16.42;;;9.10;;
58091;SDS011;43896;48.178;11.578;2023-02-28T07:54:59;15.23;;;8.35;;
58091;SDS011;43896;48.178;11.578;2023-02-28T07:57:24;15.55;;;8.25;;
58091;SDS011;43896;48.178;11.578;2023-02-28T07:59:50;13.90;;;8.25;;
58091;SDS011;43896;48.178;11.578;2023-02-28T08:02:16;16.77;;;9.15;;
58091;SDS011;43896;48.178;11.578;2023-02-28T08:04:42;16.38;;;9.13;;
58091;SDS011;43896;48.178;11.578;2023-02-28T08:07:08;18.17;;;9.25;;
58091;SDS011;43896;48.178;11.578;2023-02-28T08:09:34;16.10;;;9.27;;
58091;SDS011;43896;48.178;11.578;2023-02-28T08:12:00;17.20;;;9.73;;
58091;SDS011;43896;48.178;11.578;2023-02-28T08:14:25;15.95;;;9.25;;
58091;SDS011;43896;48.178;11.578;2023-02-28T08:16:50;17.42;;;9.80;;
58091;SDS011;43896;48.178;11.578;2023-02-28T08:19:16;21.73;;;10.55;;
58091;SDS011;43896;48.178;11.578;2023-02-28T08:21:41;20.27;;;11.23;;
58091;SDS011;43896;48.178;11.578;2023-02-28T08:24:06;19.67;;;10.45;;
58091;SDS011;43896;48.178;11.578;2023-02-28T08:26:32;22.42;;;10.90;;
58091;SDS011;43896;48.178;11.578;2023-02-28T08:28:57;17.50;;;9.68;;
58091;SDS011;43896;48.178;11.578;2023-02-28T08:31:23;17.75;;;10.05;;
58091;SDS011;43896;48.178;11.578;2023-02-28T08:33:48;16.45;;;9.40;;
58091;SDS011;43896;48.178;11.578;2023-02-28T08:36:16;18.30;;;9.77;;
58091;SDS011;43896;48.178;11.578;2023-02-28T08:38:41;17.02;;;8.75;;
58091;SDS011;43896;48.178;11.578;2023-02-28T08:41:08;17.58;;;9.23;;
58091;SDS011;43896;48.178;11.578;2023-02-28T08:43:35;17.08;;;9.32;;
58091;SDS011;43896;48.178;11.578;2023-02-28T08:46:01;15.00;;;9.07;;
58091;SDS011;43896;48.178;11.578;2023-02-28T08:48:28;16.30;;;9.60;;
58091;SDS011;43896;48.178;11.578;2023-02-28T08:50:58;17.63;;;9.23;;
58091;SDS011;43896;48.178;11.578;2023-02-28T08:53:26;16.35;;;9.45;;
58091;SDS011;43896;48.178;11.578;2023-02-28T08:55:55;17.33;;;9.57;;
58091;SDS011;43896;48.178;11.578;2023-02-28T08:58:22;17.02;;;9.98;;
58091;SDS011;43896;48.178;11.578;2023-02-28T09:00:47;16.67;;;9.70;;
58091;SDS011;43896;48.178;11.578;2023-02-28T09:03:12;17.10;;;9.68;;
58091;SDS011;43896;48.178;11.578;2023-02-28T09:05:37;17.70;;;9.45;;
58091;SDS011;43896;48.178;11.578;2023-02-28T09:08:03;18.20;;;9.63;;
58091;SDS011;43896;48.178;11.578;2023-02-28T09:10:28;17.25;;;10.07;;
58091;SDS011;43896;48.178;11.578;2023-02-28T09:12:53;15.50;;;9.50;;
58091;SDS011;43896;48.178;11.578;2023-02-28T09:15:19;18.80;;;10.07;;
58091;SDS011;43896;48.178;11.578;2023-02-28T09:17:44;17.20;;;9.82;;
58091;SDS011;43896;48.178;11.578;2023-02-28T09:20:09;18.23;;;9.82;;
58091;SDS011;43896;48.178;11.578;2023-02-28T09:22:35;15.63;;;9.20;;
58091;SDS011;43896;48.178;11.578;2023-02-28T09:25:00;16.27;;;9.93;;
58091;SDS011;43896;48.178;11.578;2023-02-28T09:27:26;19.45;;;10.18;;
58091;SDS011;43896;48.178;11.578;2023-02-28T09:29:51;16.27;;;10.10;;
58091;SDS011;43896;48.178;11.578;2023-02-28T09:32:16;16.85;;;9.52;;
58091;SDS011;43896;48.178;11.578;2023-02-28T09:34:42;16.65;;;9.50;;
58091;SDS011;43896;48.178;11.578;2023-02-28T09:37:08;18.85;;;9.95;;
58091;SDS011;43896;48.178;11.578;2023-02-28T09:39:33;16.20;;;10.05;;
58091;SDS011;43896;48.178;11.578;2023-02-28T09:41:58;16.42;;;9.82;;
58091;SDS011;43896;48.178;11.578;2023-02-28T09:44:26;16.70;;;9.38;;
58091;SDS011;43896;48.178;11.578;2023-02-28T09:47:36;17.83;;;9.93;;
58091;SDS011;43896;48.178;11.578;2023-02-28T09:49:50;18.80;;;10.68;;
58091;SDS011;43896;48.178;11.578;2023-02-28T09:52:20;16.77;;;10.32;;
58091;SDS011;43896;48.178;11.578;2023-02-28T09:54:51;15.02;;;9.77;;
58091;SDS011;43896;48.178;11.578;2023-02-28T10:00:19;15.73;;;9.63;;
58091;SDS011;43896;48.178;11.578;2023-02-28T10:02:53;16.85;;;10.27;;
58091;SDS011;43896;48.178;11.578;2023-02-28T10:05:37;18.42;;;9.75;;
58091;SDS011;43896;48.178;11.578;2023-02-28T10:08:12;16.58;;;10.07;;
58091;SDS011;43896;48.178;11.578;2023-02-28T10:11:16;19.40;;;10.52;;
58091;SDS011;43896;48.178;11.578;2023-02-28T10:13:40;19.17;;;11.30;;
58091;SDS011;43896;48.178;11.578;2023-02-28T10:16:43;19.83;;;10.60;;
58091;SDS011;43896;48.178;11.578;2023-02-28T10:19:38;17.50;;;10.20;;
58091;SDS011;43896;48.178;11.578;2023-02-28T10:22:12;16.55;;;9.88;;
58091;SDS011;43896;48.178;11.578;2023-02-28T10:24:42;19.15;;;10.57;;
58091;SDS011;43896;48.178;11.578;2023-02-28T10:27:22;16.60;;;10.07;;
58091;SDS011;43896;48.178;11.578;2023-02-28T10:29:50;18.38;;;10.35;;
58091;SDS011;43896;48.178;11.578;2023-02-28T10:32:18;17.65;;;10.60;;
58091;SDS011;43896;48.178;11.578;2023-02-28T10:37:40;17.45;;;10.07;;
58091;SDS011;43896;48.178;11.578;2023-02-28T10:40:29;18.00;;;10.10;;
58091;SDS011;43896;48.178;11.578;2023-02-28T10:45:37;17.50;;;10.35;;
58091;SDS011;43896;48.178;11.578;2023-02-28T10:53:46;15.70;;;9.68;;
58091;SDS011;43896;48.178;11.578;2023-02-28T10:58:27;15.63;;;9.60;;
58091;SDS011;43896;48.178;11.578;2023-02-28T11:00:54;16.33;;;9.88;;
58091;SDS011;43896;48.178;11.578;2023-02-28T11:03:24;16.70;;;10.15;;
58091;SDS011;43896;48.178;11.578;2023-02-28T11:05:53;17.50;;;10.65;;
58091;SDS011;43896;48.178;11.578;2023-02-28T11:08:19;15.95;;;9.90;;
58091;SDS011;43896;48.178;11.578;2023-02-28T11:10:45;16.38;;;10.23;;
58091;SDS011;43896;48.178;11.578;2023-02-28T11:13:24;21.80;;;10.85;;
58091;SDS011;43896;48.178;11.578;2023-02-28T11:15:55;16.58;;;9.95;;
58091;SDS011;43896;48.178;11.578;2023-02-28T11:18:27;16.65;;;9.75;;
58091;SDS011;43896;48.178;11.578;2023-02-28T11:20:55;15.27;;;9.70;;
58091;SDS011;43896;48.178;11.578;2023-02-28T11:23:25;18.33;;;10.80;;
58091;SDS011;43896;48.178;11.578;2023-02-28T11:25:54;16.75;;;9.90;;
58091;SDS011;43896;48.178;11.578;2023-02-28T11:28:33;14.60;;;9.82;;
58091;SDS011;43896;48.178;11.578;2023-02-28T11:33:31;17.85;;;9.95;;
58091;SDS011;43896;48.178;11.578;2023-02-28T11:36:11;18.13;;;10.45;;
58091;SDS011;43896;48.178;11.578;2023-02-28T11:38:39;16.27;;;9.48;;
58091;SDS011;43896;48.178;11.578;2023-02-28T11:41:08;15.50;;;9.85;;
58091;SDS011;43896;48.178;11.578;2023-02-28T11:43:55;14.13;;;9.38;;
58091;SDS011;43896;48.178;11.578;2023-02-28T11:46:33;14.50;;;9.63;;
58091;SDS011;43896;48.178;11.578;2023-02-28T11:51:53;15.13;;;9.32;;
58091;SDS011;43896;48.178;11.578;2023-02-28T12:00:02;16.08;;;9.40;;
58091;SDS011;43896;48.178;11.578;2023-02-28T12:02:47;14.95;;;8.93;;
58091;SDS011;43896;48.178;11.578;2023-02-28T12:05:38;16.90;;;9.27;;
58091;SDS011;43896;48.178;11.578;2023-02-28T12:08:21;13.88;;;9.00;;
58091;SDS011;43896;48.178;11.578;2023-02-28T12:16:57;15.18;;;9.25;;
58091;SDS011;43896;48.178;11.578;2023-02-28T12:19:41;13.18;;;8.55;;
58091;SDS011;43896;48.178;11.578;2023-02-28T12:27:43;15.45;;;9.38;;
58091;SDS011;43896;48.178;11.578;2023-02-28T12:32:47;14.55;;;8.82;;
58091;SDS011;43896;48.178;11.578;2023-02-28T12:35:19;14.23;;;9.05;;
58091;SDS011;43896;48.178;11.578;2023-02-28T12:37:54;13.20;;;8.38;;
58091;SDS011;43896;48.178;11.578;2023-02-28T12:40:26;13.40;;;8.32;;
58091;SDS011;43896;48.178;11.578;2023-02-28T12:42:58;13.65;;;8.25;;
58091;SDS011;43896;48.178;11.578;2023-02-28T12:45:34;13.77;;;8.70;;
58091;SDS011;43896;48.178;11.578;2023-02-28T12:48:04;14.45;;;8.63;;
58091;SDS011;43896;48.178;11.578;2023-02-28T12:50:32;16.45;;;9.63;;
58091;SDS011;43896;48.178;11.578;2023-02-28T12:56:06;13.50;;;8.70;;
58091;SDS011;43896;48.178;11.578;2023-02-28T12:58:51;16.85;;;8.70;;
58091;SDS011;43896;48.178;11.578;2023-02-28T13:09:29;13.32;;;8.00;;
58091;SDS011;43896;48.178;11.578;2023-02-28T13:11:55;14.25;;;8.50;;
58091;SDS011;43896;48.178;11.578;2023-02-28T13:19:43;13.27;;;8.48;;
58091;SDS011;43896;48.178;11.578;2023-02-28T13:25:02;12.43;;;7.78;;
58091;SDS011;43896;48.178;11.578;2023-02-28T13:27:54;14.30;;;9.48;;
58091;SDS011;43896;48.178;11.578;2023-02-28T13:36:28;15.82;;;8.63;;
58091;SDS011;43896;48.178;11.578;2023-02-28T13:38:48;14.93;;;8.35;;
58091;SDS011;43896;48.178;11.578;2023-02-28T13:51:51;16.27;;;9.07;;
58091;SDS011;43896;48.178;11.578;2023-02-28T13:57:12;12.65;;;8.20;;
58091;SDS011;43896;48.178;11.578;2023-02-28T14:00:07;13.70;;;9.05;;
58091;SDS011;43896;48.178;11.578;2023-02-28T14:05:38;17.58;;;9.90;;
58091;SDS011;43896;48.178;11.578;2023-02-28T14:08:05;14.75;;;8.77;;
58091;SDS011;43896;48.178;11.578;2023-02-28T14:16:02;16.33;;;8.52;;
58091;SDS011;43896;48.178;11.578;2023-02-28T14:18:31;13.95;;;8.80;;
58091;SDS011;43896;48.178;11.578;2023-02-28T14:23:40;15.68;;;8.68;;
58091;SDS011;43896;48.178;11.578;2023-02-28T14:27:08;15.77;;;8.65;;
58091;SDS011;43896;48.178;11.578;2023-02-28T14:29:21;16.90;;;8.35;;
58091;SDS011;43896;48.178;11.578;2023-02-28T14:31:58;13.00;;;8.65;;
58091;SDS011;43896;48.178;11.578;2023-02-28T14:37:33;13.10;;;8.15;;
58091;SDS011;43896;48.178;11.578;2023-02-28T14:40:04;15.60;;;8.90;;
58091;SDS011;43896;48.178;11.578;2023-02-28T14:42:37;14.15;;;9.02;;
58091;SDS011;43896;48.178;11.578;2023-02-28T14:45:03;15.52;;;8.00;;
58091;SDS011;43896;48.178;11.578;2023-02-28T14:47:32;14.77;;;8.13;;
58091;SDS011;43896;48.178;11.578;2023-02-28T14:50:00;13.77;;;8.38;;
58091;SDS011;43896;48.178;11.578;2023-02-28T14:52:29;15.25;;;8.85;;
58091;SDS011;43896;48.178;11.578;2023-02-28T14:55:00;14.00;;;8.32;;
58091;SDS011;43896;48.178;11.578;2023-02-28T14:57:32;13.88;;;8.98;;
58091;SDS011;43896;48.178;11.578;2023-02-28T15:00:01;16.77;;;8.50;;
58091;SDS011;43896;48.178;11.578;2023-02-28T15:02:35;14.60;;;8.15;;
58091;SDS011;43896;48.178;11.578;2023-02-28T15:05:10;12.75;;;7.90;;
58091;SDS011;43896;48.178;11.578;2023-02-28T15:07:41;14.93;;;8.43;;
58091;SDS011;43896;48.178;11.578;2023-02-28T15:10:21;13.05;;;8.55;;
58091;SDS011;43896;48.178;11.578;2023-02-28T15:15:18;13.77;;;8.32;;
58091;SDS011;43896;48.178;11.578;2023-02-28T15:17:46;13.43;;;8.75;;
58091;SDS011;43896;48.178;11.578;2023-02-28T15:20:18;13.55;;;8.40;;
58091;SDS011;43896;48.178;11.578;2023-02-28T15:22:44;12.77;;;8.93;;
58091;SDS011;43896;48.178;11.578;2023-02-28T15:25:13;14.70;;;8.82;;
58091;SDS011;43896;48.178;11.578;2023-02-28T15:27:44;14.05;;;8.15;;
58091;SDS011;43896;48.178;11.578;2023-02-28T15:30:16;13.10;;;8.85;;
58091;SDS011;43896;48.178;11.578;2023-02-28T15:32:44;12.73;;;7.80;;
58091;SDS011;43896;48.178;11.578;2023-02-28T15:35:37;12.57;;;7.97;;
58091;SDS011;43896;48.178;11.578;2023-02-28T15:38:08;13.52;;;8.02;;
58091;SDS011;43896;48.178;11.578;2023-02-28T15:40:41;13.93;;;8.27;;
58091;SDS011;43896;48.178;11.578;2023-02-28T15:43:18;15.80;;;8.75;;
58091;SDS011;43896;48.178;11.578;2023-02-28T15:45:49;13.10;;;7.95;;
58091;SDS011;43896;48.178;11.578;2023-02-28T15:50:48;14.93;;;8.15;;
58091;SDS011;43896;48.178;11.578;2023-02-28T15:53:17;13.30;;;8.00;;
58091;SDS011;43896;48.178;11.578;2023-02-28T15:55:50;13.48;;;8.48;;
58091;SDS011;43896;48.178;11.578;2023-02-28T15:58:19;22.20;;;8.55;;
58091;SDS011;43896;48.178;11.578;2023-02-28T16:00:59;13.48;;;8.48;;
58091;SDS011;43896;48.178;11.578;2023-02-28T16:03:34;13.02;;;8.23;;
58091;SDS011;43896;48.178;11.578;2023-02-28T16:08:41;16.00;;;8.35;;
58091;SDS011;43896;48.178;11.578;2023-02-28T16:11:08;16.45;;;8.98;;
58091;SDS011;43896;48.178;11.578;2023-02-28T16:13:35;14.23;;;8.80;;
58091;SDS011;43896;48.178;11.578;2023-02-28T16:16:00;15.27;;;8.88;;
58091;SDS011;43896;48.178;11.578;2023-02-28T16:18:26;15.88;;;8.38;;
58091;SDS011;43896;48.178;11.578;2023-02-28T16:20:51;18.58;;;9.07;;
58091;SDS011;43896;48.178;11.578;2023-02-28T16:23:17;16.73;;;8.75;;
58091;SDS011;43896;48.178;11.578;2023-02-28T16:25:42;14.05;;;8.48;;
58091;SDS011;43896;48.178;11.578;2023-02-28T16:28:18;12.90;;;8.35;;
58091;SDS011;43896;48.178;11.578;2023-02-28T16:30:47;16.23;;;8.30;;
58091;SDS011;43896;48.178;11.578;2023-02-28T16:33:13;14.30;;;8.43;;
58091;SDS011;43896;48.178;11.578;2023-02-28T16:35:38;14.77;;;8.07;;
58091;SDS011;43896;48.178;11.578;2023-02-28T16:38:03;16.25;;;8.85;;
58091;SDS011;43896;48.178;11.578;2023-02-28T16:40:29;13.60;;;8.30;;
58091;SDS011;43896;48.178;11.578;2023-02-28T16:42:59;13.43;;;7.97;;
58091;SDS011;43896;48.178;11.578;2023-02-28T16:45:28;13.57;;;8.43;;
58091;SDS011;43896;48.178;11.578;2023-02-28T16:47:54;13.45;;;8.48;;